createdAt,value
2022-12-22T00:02:19.112Z,29.65
2022-12-22T00:05:32.337Z,30.83
2022-12-22T00:08:37.033Z,31.33
2022-12-22T00:11:43.318Z,28.75
2022-12-22T00:14:48.632Z,26.48
2022-12-22T00:17:53.694Z,23.85
2022-12-22T00:20:58.215Z,26.33
2022-12-22T00:24:03.311Z,24.98
2022-12-22T00:27:09.691Z,23.42
2022-12-22T00:30:14.739Z,25.43
2022-12-22T00:33:20.222Z,22.85
2022-12-22T00:36:28.858Z,21.80
2022-12-22T00:39:33.613Z,22.40
2022-12-22T00:42:40.026Z,20.98
2022-12-22T00:45:44.851Z,23.17
2022-12-22T00:48:50.214Z,24.10
2022-12-22T00:51:55.639Z,23.95
2022-12-22T00:55:01.084Z,23.95
2022-12-22T00:58:07.459Z,21.60
2022-12-22T01:01:12.106Z,23.67
2022-12-22T01:04:17.131Z,22.75
2022-12-22T01:07:23.667Z,25.65
2022-12-22T01:10:31.970Z,26.42
2022-12-22T01:13:37.941Z,25.20
2022-12-22T01:16:42.705Z,22.75
2022-12-22T01:19:47.655Z,26.55
2022-12-22T01:22:52.775Z,29.15
2022-12-22T01:25:57.849Z,27.55
2022-12-22T01:29:04.108Z,29.55
2022-12-22T01:32:09.163Z,29.93
2022-12-22T01:35:13.914Z,27.02
2022-12-22T01:38:18.835Z,27.75
2022-12-22T01:41:28.975Z,26.58
2022-12-22T01:44:36.716Z,25.40
2022-12-22T01:47:53.227Z,25.65
2022-12-22T01:50:58.493Z,24.90
2022-12-22T01:54:03.983Z,23.63
2022-12-22T01:57:09.654Z,24.88
2022-12-22T02:00:15.809Z,26.30
2022-12-22T02:03:20.980Z,22.17
2022-12-22T02:06:43.813Z,23.60
2022-12-22T02:09:58.591Z,22.52
2022-12-22T02:13:11.572Z,20.38
2022-12-22T02:16:26.102Z,18.90
2022-12-22T02:19:48.451Z,19.33
2022-12-22T02:23:03.978Z,17.27
2022-12-22T02:26:15.762Z,15.85
2022-12-22T02:29:23.808Z,15.52
2022-12-22T02:32:29.354Z,14.82
2022-12-22T02:35:35.703Z,14.98
2022-12-22T02:38:54.503Z,14.70
2022-12-22T02:42:06.678Z,14.50
2022-12-22T02:45:21.087Z,14.18
2022-12-22T02:48:30.097Z,12.75
2022-12-22T02:51:37.987Z,10.60
2022-12-22T02:54:43.526Z,13.40
2022-12-22T02:57:48.467Z,13.13
2022-12-22T03:00:54.784Z,13.50
2022-12-22T03:04:00.332Z,12.70
2022-12-22T03:07:05.467Z,11.73
2022-12-22T03:10:10.098Z,15.20
2022-12-22T03:13:17.848Z,14.65
2022-12-22T03:16:24.698Z,16.30
2022-12-22T03:19:29.603Z,17.85
2022-12-22T03:22:34.648Z,18.60
2022-12-22T03:25:39.339Z,16.58
2022-12-22T03:28:29.224Z,15.07
2022-12-22T03:31:18.394Z,17.38
2022-12-22T03:34:05.840Z,17.42
2022-12-22T03:36:53.421Z,16.10
2022-12-22T03:39:41.161Z,15.50
2022-12-22T03:42:46.215Z,19.77
2022-12-22T03:45:50.851Z,18.60
2022-12-22T03:48:39.668Z,19.25
2022-12-22T03:51:27.431Z,16.58
2022-12-22T03:54:16.279Z,15.57
2022-12-22T03:57:03.987Z,19.48
2022-12-22T03:59:51.606Z,17.88
2022-12-22T04:02:39.196Z,16.85
2022-12-22T04:05:28.524Z,15.32
2022-12-22T04:08:16.032Z,13.73
2022-12-22T04:11:20.797Z,14.57
2022-12-22T04:14:09.443Z,13.15
2022-12-22T04:16:57.222Z,16.92
2022-12-22T04:19:44.615Z,17.05
2022-12-22T04:22:33.377Z,14.65
2022-12-22T04:25:21.779Z,15.48
2022-12-22T04:28:09.404Z,14.27
2022-12-22T04:30:56.744Z,11.57
2022-12-22T04:33:44.295Z,10.98
2022-12-22T04:36:32.074Z,12.30
2022-12-22T04:39:20.991Z,10.55
2022-12-22T04:42:08.627Z,12.93
2022-12-22T04:44:56.293Z,12.70
2022-12-22T04:47:43.845Z,12.68
2022-12-22T04:50:31.380Z,14.52
2022-12-22T04:53:18.743Z,14.35
2022-12-22T04:56:09.842Z,16.80
2022-12-22T04:58:57.145Z,13.93
2022-12-22T05:01:44.820Z,15.77
2022-12-22T05:04:32.464Z,14.55
2022-12-22T05:07:20.802Z,13.82
2022-12-22T05:10:09.727Z,16.70
2022-12-22T05:12:58.870Z,16.73
2022-12-22T05:15:46.675Z,15.48
2022-12-22T05:18:34.804Z,11.88
2022-12-22T05:21:24.356Z,11.98
2022-12-22T05:24:11.789Z,12.35
2022-12-22T05:26:59.472Z,13.13
2022-12-22T05:29:48.207Z,11.43
2022-12-22T05:32:36.178Z,13.13
2022-12-22T05:35:23.813Z,13.05
2022-12-22T05:38:11.274Z,12.73
2022-12-22T05:41:03.976Z,14.95
2022-12-22T05:43:51.874Z,13.40
2022-12-22T05:46:40.809Z,18.25
2022-12-22T05:49:28.586Z,19.23
2022-12-22T05:52:16.048Z,16.85
2022-12-22T05:55:03.677Z,20.73
2022-12-22T05:57:51.281Z,20.08
2022-12-22T06:00:39.168Z,20.73
2022-12-22T06:03:29.037Z,18.00
2022-12-22T06:06:16.587Z,16.08
2022-12-22T06:09:04.088Z,18.77
2022-12-22T06:11:51.789Z,21.73
2022-12-22T06:14:39.064Z,23.85
2022-12-22T06:17:26.468Z,20.35
2022-12-22T06:20:16.028Z,25.45
2022-12-22T06:23:03.652Z,24.55
2022-12-22T06:26:01.819Z,23.83
2022-12-22T06:28:52.209Z,21.00
2022-12-22T06:31:40.164Z,20.40
2022-12-22T06:34:28.055Z,20.90
2022-12-22T06:37:16.871Z,17.10
2022-12-22T06:40:06.257Z,17.15
2022-12-22T06:43:11.801Z,19.10
2022-12-22T06:45:59.442Z,15.27
2022-12-22T06:48:46.909Z,15.93
2022-12-22T06:51:34.251Z,18.60
2022-12-22T06:54:26.264Z,19.25
2022-12-22T06:57:14.205Z,17.70
2022-12-22T07:00:01.794Z,15.77
2022-12-22T07:02:49.574Z,15.98
2022-12-22T07:05:37.091Z,14.77
2022-12-22T07:08:24.458Z,16.38
2022-12-22T07:11:13.402Z,15.25
2022-12-22T07:14:01.073Z,15.48
2022-12-22T07:16:49.056Z,16.80
2022-12-22T07:19:36.486Z,17.15
2022-12-22T07:22:29.519Z,18.33
2022-12-22T07:25:18.352Z,17.95
2022-12-22T07:28:08.192Z,16.45
2022-12-22T07:30:56.414Z,16.67
2022-12-22T07:33:43.711Z,15.52
2022-12-22T07:36:31.386Z,16.80
2022-12-22T07:39:19.161Z,16.60
2022-12-22T07:42:24.427Z,14.60
2022-12-22T07:45:14.210Z,16.88
2022-12-22T07:48:23.682Z,16.90
2022-12-22T07:51:10.372Z,17.83
2022-12-22T07:56:46.676Z,17.58
2022-12-22T07:59:34.394Z,18.10
2022-12-22T08:02:23.734Z,17.27
2022-12-22T08:05:11.532Z,16.13
2022-12-22T08:07:59.525Z,14.80
2022-12-22T08:10:47.378Z,17.40
2022-12-22T08:13:35.360Z,17.75
2022-12-22T08:16:23.044Z,16.88
2022-12-22T08:19:12.271Z,17.42
2022-12-22T08:22:00.870Z,16.30
2022-12-22T08:24:48.647Z,14.85
2022-12-22T08:27:42.574Z,15.05
2022-12-22T08:30:30.338Z,15.00
2022-12-22T08:33:18.082Z,15.40
2022-12-22T08:36:08.650Z,14.68
2022-12-22T08:38:57.505Z,13.93
2022-12-22T08:41:51.093Z,14.30
2022-12-22T08:44:40.083Z,15.73
2022-12-22T08:47:27.738Z,15.13
2022-12-22T08:50:15.342Z,16.42
2022-12-22T08:53:23.496Z,16.38
2022-12-22T08:56:15.924Z,15.35
2022-12-22T08:59:05.448Z,16.75
2022-12-22T09:01:52.985Z,17.08
2022-12-22T09:04:40.621Z,17.45
2022-12-22T09:07:28.158Z,16.38
2022-12-22T09:10:17.407Z,17.65
2022-12-22T09:13:04.928Z,17.73
2022-12-22T09:15:52.531Z,16.48
2022-12-22T09:18:39.838Z,17.88
2022-12-22T09:21:27.881Z,17.33
2022-12-22T09:24:15.731Z,17.33
2022-12-22T09:27:06.673Z,16.45
2022-12-22T09:29:54.282Z,16.67
2022-12-22T09:32:41.936Z,15.43
2022-12-22T09:35:29.752Z,15.18
2022-12-22T09:38:17.162Z,14.75
2022-12-22T09:41:10.060Z,14.88
2022-12-22T09:43:59.382Z,14.55
2022-12-22T09:46:46.853Z,14.90
2022-12-22T09:49:34.529Z,15.27
2022-12-22T09:52:43.808Z,14.75
2022-12-22T09:55:40.903Z,14.88
2022-12-22T10:01:31.853Z,14.18
2022-12-22T10:04:28.605Z,15.18
2022-12-22T10:07:26.088Z,13.85
2022-12-22T10:10:24.990Z,16.30
2022-12-22T10:13:18.610Z,16.00
2022-12-22T10:16:21.488Z,16.17
2022-12-22T10:19:11.649Z,14.43
2022-12-22T10:22:20.495Z,13.90
2022-12-22T10:25:24.452Z,14.98
2022-12-22T10:28:18.769Z,14.27
2022-12-22T10:31:30.200Z,14.35
2022-12-22T10:34:20.370Z,14.07
2022-12-22T10:37:08.046Z,15.68
2022-12-22T10:39:55.461Z,15.00
2022-12-22T10:42:47.348Z,16.65
2022-12-22T10:45:35.667Z,16.55
2022-12-22T10:48:33.472Z,15.20
2022-12-22T10:51:26.527Z,15.30
2022-12-22T10:54:26.250Z,15.88
2022-12-22T10:57:29.026Z,15.45
2022-12-22T11:00:29.161Z,14.50
2022-12-22T11:03:32.285Z,14.38
2022-12-22T11:06:20.355Z,11.25
2022-12-22T11:09:32.113Z,10.57
2022-12-22T11:12:28.745Z,9.07
2022-12-22T11:15:27.192Z,7.80
2022-12-22T11:18:35.726Z,8.10
2022-12-22T11:21:30.421Z,7.60
2022-12-22T11:24:35.390Z,7.40
2022-12-22T11:27:33.062Z,7.90
2022-12-22T11:30:22.888Z,7.82
2022-12-22T11:33:38.688Z,9.15
2022-12-22T11:36:37.636Z,8.73
2022-12-22T11:39:38.257Z,10.93
2022-12-22T11:42:51.322Z,12.10
2022-12-22T11:45:48.351Z,12.88
2022-12-22T11:49:10.167Z,13.63
2022-12-22T11:52:14.708Z,12.55
2022-12-22T11:55:13.255Z,14.85
2022-12-22T11:58:14.000Z,13.50
2022-12-22T12:01:20.169Z,14.38
2022-12-22T12:04:24.584Z,14.70
2022-12-22T12:07:26.988Z,15.20
2022-12-22T12:10:18.410Z,14.95
2022-12-22T12:13:11.949Z,15.57
2022-12-22T12:16:09.777Z,15.02
2022-12-22T12:19:28.419Z,15.80
2022-12-22T12:22:28.773Z,15.77
2022-12-22T12:25:26.580Z,16.70
2022-12-22T12:28:25.109Z,16.35
2022-12-22T12:31:15.045Z,16.63
2022-12-22T12:34:04.435Z,15.50
2022-12-22T12:36:58.650Z,16.08
2022-12-22T12:39:57.086Z,15.93
2022-12-22T12:42:47.697Z,16.55
2022-12-22T12:45:39.760Z,15.90
2022-12-22T12:48:40.886Z,16.33
2022-12-22T12:51:49.634Z,15.43
2022-12-22T12:54:45.108Z,15.02
2022-12-22T12:57:47.633Z,12.63
2022-12-22T13:00:53.973Z,12.88
2022-12-22T13:04:03.476Z,13.13
2022-12-22T13:06:54.320Z,13.80
2022-12-22T13:10:08.246Z,13.05
2022-12-22T13:12:58.095Z,14.80
2022-12-22T13:15:46.112Z,13.07
2022-12-22T13:18:49.836Z,13.80
2022-12-22T13:21:52.919Z,14.23
2022-12-22T13:27:57.925Z,11.35
2022-12-22T13:30:49.568Z,10.73
2022-12-22T13:30:51.131Z,11.90
2022-12-22T13:33:41.148Z,10.63
2022-12-22T13:36:29.780Z,11.93
2022-12-22T13:39:18.020Z,11.48
2022-12-22T13:51:23.983Z,9.40
2022-12-22T13:54:16.476Z,9.93
2022-12-22T13:57:05.878Z,11.40
2022-12-22T13:59:55.139Z,14.90
2022-12-22T14:02:42.535Z,15.40
2022-12-22T14:05:34.351Z,13.68
2022-12-22T14:08:25.901Z,12.82
2022-12-22T14:11:13.423Z,12.82
2022-12-22T14:14:00.934Z,13.40
2022-12-22T14:16:50.929Z,15.18
2022-12-22T14:19:39.453Z,15.10
2022-12-22T14:22:30.333Z,13.10
2022-12-22T14:25:23.039Z,14.48
2022-12-22T14:28:19.575Z,14.00
2022-12-22T14:31:08.240Z,12.40
2022-12-22T14:34:03.483Z,13.73
2022-12-22T14:36:53.823Z,13.75
2022-12-22T14:39:42.054Z,12.15
2022-12-22T14:42:32.423Z,12.70
2022-12-22T14:45:19.753Z,12.85
2022-12-22T14:48:10.017Z,13.02
2022-12-22T14:50:58.520Z,12.18
2022-12-22T14:53:49.372Z,12.15
2022-12-22T14:56:48.186Z,10.73
2022-12-22T14:59:37.214Z,12.18
2022-12-22T15:02:35.033Z,11.40
2022-12-22T15:05:27.823Z,12.20
2022-12-22T15:08:39.401Z,12.32
2022-12-22T15:11:26.802Z,13.25
2022-12-22T15:14:17.589Z,16.55
2022-12-22T15:17:08.967Z,18.17
2022-12-22T15:19:59.018Z,20.02
2022-12-22T15:22:46.754Z,18.80
2022-12-22T15:25:34.454Z,16.55
2022-12-22T15:28:22.105Z,16.42
2022-12-22T15:31:15.868Z,15.75
2022-12-22T15:34:08.304Z,15.00
2022-12-22T15:36:56.550Z,15.38
2022-12-22T15:39:44.319Z,16.33
2022-12-22T15:42:31.951Z,15.10
2022-12-22T15:45:20.372Z,14.18
2022-12-22T15:48:11.875Z,14.70
2022-12-22T15:51:01.528Z,13.20
2022-12-22T15:53:49.149Z,13.75
2022-12-22T15:56:37.295Z,14.48
2022-12-22T15:59:27.229Z,12.93
2022-12-22T16:02:15.711Z,14.02
2022-12-22T16:05:03.393Z,13.00
2022-12-22T16:07:52.652Z,13.10
2022-12-22T16:10:40.438Z,10.57
2022-12-22T16:13:29.403Z,11.52
2022-12-22T16:16:16.957Z,11.50
2022-12-22T16:19:04.421Z,11.27
2022-12-22T16:21:54.277Z,11.45
2022-12-22T16:24:45.616Z,11.05
2022-12-22T16:27:33.156Z,10.55
2022-12-22T16:30:23.591Z,10.60
2022-12-22T16:33:12.965Z,11.15
2022-12-22T16:36:00.597Z,11.20
2022-12-22T16:38:48.703Z,12.52
2022-12-22T16:41:37.784Z,13.52
2022-12-22T16:44:25.458Z,12.52
2022-12-22T16:47:18.589Z,12.90
2022-12-22T16:50:16.593Z,14.23
2022-12-22T16:53:06.407Z,14.82
2022-12-22T16:55:53.822Z,14.95
2022-12-22T16:58:45.137Z,16.33
2022-12-22T17:01:38.363Z,17.30
2022-12-22T17:04:30.691Z,17.00
2022-12-22T17:07:18.882Z,17.42
2022-12-22T17:10:07.348Z,17.70
2022-12-22T17:12:57.051Z,17.98
2022-12-22T17:15:46.048Z,16.25
2022-12-22T17:18:39.072Z,16.45
2022-12-22T17:21:29.743Z,15.70
2022-12-22T17:24:25.886Z,26.13
2022-12-22T17:27:16.132Z,24.73
2022-12-22T17:30:05.393Z,26.15
2022-12-22T17:32:55.025Z,22.75
2022-12-22T17:35:43.949Z,23.10
2022-12-22T17:38:31.623Z,20.95
2022-12-22T17:41:19.652Z,19.60
2022-12-22T17:44:07.373Z,19.65
2022-12-22T17:46:55.006Z,19.20
2022-12-22T17:49:44.483Z,21.23
2022-12-22T17:52:31.902Z,19.23
2022-12-22T17:55:49.921Z,20.80
2022-12-22T17:58:29.175Z,20.08
2022-12-22T18:01:28.410Z,19.55
2022-12-22T18:04:16.208Z,18.13
2022-12-22T18:07:05.035Z,19.30
2022-12-22T18:09:59.178Z,16.95
2022-12-22T18:12:46.584Z,14.13
2022-12-22T18:15:34.231Z,11.90
2022-12-22T18:18:22.007Z,11.38
2022-12-22T18:21:15.366Z,10.55
2022-12-22T18:24:05.705Z,10.55
2022-12-22T18:26:53.905Z,9.27
2022-12-22T18:29:41.478Z,9.68
2022-12-22T18:32:29.185Z,8.75
2022-12-22T18:35:17.644Z,8.20
2022-12-22T18:38:06.169Z,8.40
2022-12-22T18:40:55.199Z,8.23
2022-12-22T18:43:42.852Z,8.18
2022-12-22T18:46:30.572Z,7.47
2022-12-22T18:49:17.981Z,7.28
2022-12-22T18:52:05.835Z,6.68
2022-12-22T18:54:53.675Z,7.10
2022-12-22T18:57:45.688Z,6.80
2022-12-22T19:00:37.515Z,7.53
2022-12-22T19:03:29.392Z,7.93
2022-12-22T19:06:19.788Z,7.80
2022-12-22T19:09:13.227Z,7.78
2022-12-22T19:12:00.713Z,8.35
2022-12-22T19:14:58.463Z,8.50
2022-12-22T19:17:46.139Z,9.25
2022-12-22T19:20:33.735Z,9.00
2022-12-22T19:23:26.540Z,9.70
2022-12-22T19:26:22.186Z,9.57
2022-12-22T19:29:14.945Z,8.32
2022-12-22T19:32:04.407Z,7.97
2022-12-22T19:34:52.592Z,7.82
2022-12-22T19:37:40.020Z,7.50
2022-12-22T19:40:30.814Z,8.15
2022-12-22T19:43:20.455Z,7.50
2022-12-22T19:46:08.265Z,7.85
2022-12-22T19:48:57.308Z,7.13
2022-12-22T19:51:45.305Z,8.20
2022-12-22T19:54:33.461Z,10.27
2022-12-22T19:57:24.135Z,9.40
2022-12-22T20:00:17.967Z,7.93
2022-12-22T20:03:06.249Z,6.18
2022-12-22T20:05:55.173Z,6.30
2022-12-22T20:08:42.713Z,6.07
2022-12-22T20:11:30.307Z,5.63
2022-12-22T20:14:18.886Z,6.13
2022-12-22T20:17:06.743Z,6.07
2022-12-22T20:19:54.278Z,6.90
2022-12-22T20:22:45.925Z,6.15
2022-12-22T20:25:40.306Z,6.35
2022-12-22T20:28:30.079Z,6.47
2022-12-22T20:31:19.495Z,6.60
2022-12-22T20:34:08.066Z,8.27
2022-12-22T20:36:55.707Z,6.65
2022-12-22T20:39:45.774Z,8.70
2022-12-22T20:42:33.221Z,8.48
2022-12-22T20:45:22.210Z,8.05
2022-12-22T20:48:26.217Z,7.50
2022-12-22T20:51:16.077Z,8.13
2022-12-22T20:54:03.754Z,8.10
2022-12-22T20:56:52.548Z,8.05
2022-12-22T20:59:39.869Z,8.00
2022-12-22T21:02:29.082Z,8.20
2022-12-22T21:05:17.479Z,8.30
2022-12-22T21:08:05.595Z,8.93
2022-12-22T21:10:54.529Z,9.07
2022-12-22T21:13:43.270Z,9.00
2022-12-22T21:16:34.277Z,9.05
2022-12-22T21:19:21.713Z,9.32
2022-12-22T21:22:09.156Z,7.32
2022-12-22T21:24:56.751Z,7.95
2022-12-22T21:27:46.032Z,8.38
2022-12-22T21:30:34.859Z,8.52
2022-12-22T21:33:23.509Z,7.88
2022-12-22T21:36:18.736Z,9.40
2022-12-22T21:39:13.310Z,8.07
2022-12-22T21:42:04.703Z,8.07
2022-12-22T21:44:52.719Z,7.65
2022-12-22T21:47:42.054Z,7.55
2022-12-22T21:50:31.467Z,8.10
2022-12-22T21:53:22.468Z,9.38
2022-12-22T21:56:18.759Z,7.78
2022-12-22T21:59:06.460Z,8.27
2022-12-22T22:01:54.013Z,8.13
2022-12-22T22:04:46.733Z,8.27
2022-12-22T22:07:39.621Z,8.57
2022-12-22T22:10:28.551Z,8.90
2022-12-22T22:13:16.938Z,7.85
2022-12-22T22:16:04.951Z,7.93
2022-12-22T22:18:52.527Z,7.45
2022-12-22T22:21:41.356Z,10.48
2022-12-22T22:24:28.805Z,8.75
2022-12-22T22:27:16.501Z,8.25
2022-12-22T22:30:04.056Z,8.32
2022-12-22T22:32:52.198Z,7.72
2022-12-22T22:35:43.775Z,7.60
2022-12-22T22:38:32.876Z,8.40
2022-12-22T22:41:20.818Z,8.70
2022-12-22T22:44:08.448Z,8.52
2022-12-22T22:46:55.976Z,7.80
2022-12-22T22:49:43.608Z,8.45
2022-12-22T22:52:31.099Z,7.72
2022-12-22T22:55:20.180Z,8.80
2022-12-22T22:58:07.479Z,9.77
2022-12-22T23:00:55.116Z,8.90
2022-12-22T23:03:42.963Z,8.85
2022-12-22T23:06:30.695Z,8.48
2022-12-22T23:09:18.002Z,8.23
2022-12-22T23:12:07.477Z,8.55
2022-12-22T23:14:55.196Z,7.53
2022-12-22T23:17:42.519Z,8.35
2022-12-22T23:20:29.982Z,7.03
2022-12-22T23:23:17.985Z,8.05
2022-12-22T23:26:06.153Z,7.70
2022-12-22T23:29:01.010Z,7.15
2022-12-22T23:31:50.486Z,7.35
2022-12-22T23:34:38.149Z,6.15
2022-12-22T23:37:25.646Z,6.80
2022-12-22T23:43:21.314Z,7.00
2022-12-22T23:46:12.962Z,5.75
2022-12-22T23:49:01.072Z,5.85
2022-12-22T23:51:48.357Z,5.80
2022-12-22T23:54:35.695Z,5.82
2022-12-22T23:57:23.138Z,5.60
